sensor_id;sensor_type;location;lat;lon;timestamp;P1;durP1;ratioP1;P2;durP2;ratioP2
1400;SDS011;46518;48.842;8.926;2022-12-07T00:01:46;15.43;;;8.85;;
1400;SDS011;46518;48.842;8.926;2022-12-07T00:04:15;15.32;;;9.10;;
1400;SDS011;46518;48.842;8.926;2022-12-07T00:06:45;15.57;;;9.70;;
1400;SDS011;46518;48.842;8.926;2022-12-07T00:09:17;13.93;;;10.10;;
1400;SDS011;46518;48.842;8.926;2022-12-07T00:11:47;13.18;;;9.90;;
1400;SDS011;46518;48.842;8.926;2022-12-07T00:14:17;13.27;;;10.00;;
1400;SDS011;46518;48.842;8.926;2022-12-07T00:16:48;12.85;;;10.20;;
1400;SDS011;46518;48.842;8.926;2022-12-07T00:19:17;15.32;;;9.77;;
1400;SDS011;46518;48.842;8.926;2022-12-07T00:21:45;14.23;;;9.55;;
1400;SDS011;46518;48.842;8.926;2022-12-07T00:24:13;14.95;;;10.07;;
1400;SDS011;46518;48.842;8.926;2022-12-07T00:26:42;14.82;;;10.40;;
1400;SDS011;46518;48.842;8.926;2022-12-07T00:29:12;13.38;;;10.02;;
1400;SDS011;46518;48.842;8.926;2022-12-07T00:31:43;12.90;;;9.95;;
1400;SDS011;46518;48.842;8.926;2022-12-07T00:34:14;12.20;;;9.77;;
1400;SDS011;46518;48.842;8.926;2022-12-07T00:36:44;12.45;;;9.32;;
1400;SDS011;46518;48.842;8.926;2022-12-07T00:39:12;14.98;;;9.43;;
1400;SDS011;46518;48.842;8.926;2022-12-07T00:41:40;10.10;;;7.93;;
1400;SDS011;46518;48.842;8.926;2022-12-07T00:44:08;12.77;;;9.40;;
1400;SDS011;46518;48.842;8.926;2022-12-07T00:46:37;10.10;;;8.27;;
1400;SDS011;46518;48.842;8.926;2022-12-07T00:49:05;9.50;;;8.32;;
1400;SDS011;46518;48.842;8.926;2022-12-07T00:51:35;14.50;;;9.30;;
1400;SDS011;46518;48.842;8.926;2022-12-07T00:54:03;12.93;;;10.45;;
1400;SDS011;46518;48.842;8.926;2022-12-07T00:56:31;10.50;;;9.18;;
1400;SDS011;46518;48.842;8.926;2022-12-07T00:59:00;16.77;;;10.02;;
1400;SDS011;46518;48.842;8.926;2022-12-07T01:01:30;13.88;;;8.63;;
1400;SDS011;46518;48.842;8.926;2022-12-07T01:04:01;13.98;;;9.90;;
1400;SDS011;46518;48.842;8.926;2022-12-07T01:06:29;11.43;;;8.48;;
1400;SDS011;46518;48.842;8.926;2022-12-07T01:09:00;13.35;;;9.98;;
1400;SDS011;46518;48.842;8.926;2022-12-07T01:11:30;14.10;;;8.75;;
1400;SDS011;46518;48.842;8.926;2022-12-07T01:14:00;12.93;;;8.65;;
1400;SDS011;46518;48.842;8.926;2022-12-07T01:16:29;13.50;;;8.15;;
1400;SDS011;46518;48.842;8.926;2022-12-07T01:18:59;14.07;;;9.70;;
1400;SDS011;46518;48.842;8.926;2022-12-07T01:21:29;12.27;;;9.30;;
1400;SDS011;46518;48.842;8.926;2022-12-07T01:24:03;11.73;;;10.05;;
1400;SDS011;46518;48.842;8.926;2022-12-07T01:26:32;13.88;;;9.65;;
1400;SDS011;46518;48.842;8.926;2022-12-07T01:29:00;15.60;;;9.45;;
1400;SDS011;46518;48.842;8.926;2022-12-07T01:31:28;13.88;;;11.30;;
1400;SDS011;46518;48.842;8.926;2022-12-07T01:33:58;12.43;;;9.60;;
1400;SDS011;46518;48.842;8.926;2022-12-07T01:36:27;14.35;;;9.25;;
1400;SDS011;46518;48.842;8.926;2022-12-07T01:38:58;12.80;;;9.57;;
1400;SDS011;46518;48.842;8.926;2022-12-07T01:41:29;15.57;;;9.65;;
1400;SDS011;46518;48.842;8.926;2022-12-07T01:46:50;13.55;;;9.43;;
1400;SDS011;46518;48.842;8.926;2022-12-07T01:49:21;12.27;;;9.43;;
1400;SDS011;46518;48.842;8.926;2022-12-07T01:51:55;14.73;;;10.85;;
1400;SDS011;46518;48.842;8.926;2022-12-07T01:54:29;11.15;;;9.40;;
1400;SDS011;46518;48.842;8.926;2022-12-07T01:56:59;11.77;;;8.70;;
1400;SDS011;46518;48.842;8.926;2022-12-07T01:59:28;12.93;;;10.20;;
1400;SDS011;46518;48.842;8.926;2022-12-07T02:01:56;14.02;;;10.13;;
1400;SDS011;46518;48.842;8.926;2022-12-07T02:04:25;14.40;;;9.77;;
1400;SDS011;46518;48.842;8.926;2022-12-07T02:06:53;16.40;;;11.20;;
1400;SDS011;46518;48.842;8.926;2022-12-07T02:09:22;16.83;;;11.13;;
1400;SDS011;46518;48.842;8.926;2022-12-07T02:11:50;16.15;;;10.77;;
1400;SDS011;46518;48.842;8.926;2022-12-07T02:14:21;11.55;;;9.95;;
1400;SDS011;46518;48.842;8.926;2022-12-07T02:16:53;12.73;;;10.52;;
1400;SDS011;46518;48.842;8.926;2022-12-07T02:19:43;15.63;;;11.35;;
1400;SDS011;46518;48.842;8.926;2022-12-07T02:22:37;12.63;;;9.70;;
1400;SDS011;46518;48.842;8.926;2022-12-07T02:25:27;16.42;;;11.30;;
1400;SDS011;46518;48.842;8.926;2022-12-07T02:28:10;14.90;;;11.60;;
1400;SDS011;46518;48.842;8.926;2022-12-07T02:30:48;12.20;;;10.48;;
1400;SDS011;46518;48.842;8.926;2022-12-07T02:33:27;16.23;;;11.02;;
1400;SDS011;46518;48.842;8.926;2022-12-07T02:35:59;15.55;;;10.82;;
1400;SDS011;46518;48.842;8.926;2022-12-07T02:38:34;12.40;;;10.10;;
1400;SDS011;46518;48.842;8.926;2022-12-07T02:41:06;16.42;;;9.90;;
1400;SDS011;46518;48.842;8.926;2022-12-07T02:43:45;14.65;;;10.50;;
1400;SDS011;46518;48.842;8.926;2022-12-07T02:46:21;12.70;;;9.18;;
1400;SDS011;46518;48.842;8.926;2022-12-07T02:48:53;11.80;;;10.55;;
1400;SDS011;46518;48.842;8.926;2022-12-07T02:51:22;13.77;;;9.02;;
1400;SDS011;46518;48.842;8.926;2022-12-07T02:53:50;13.48;;;9.80;;
1400;SDS011;46518;48.842;8.926;2022-12-07T02:56:20;13.20;;;9.68;;
1400;SDS011;46518;48.842;8.926;2022-12-07T02:58:59;12.68;;;9.38;;
1400;SDS011;46518;48.842;8.926;2022-12-07T03:01:39;12.95;;;9.70;;
1400;SDS011;46518;48.842;8.926;2022-12-07T03:04:21;15.35;;;9.68;;
1400;SDS011;46518;48.842;8.926;2022-12-07T03:07:01;13.70;;;9.63;;
1400;SDS011;46518;48.842;8.926;2022-12-07T03:09:37;13.73;;;9.30;;
1400;SDS011;46518;48.842;8.926;2022-12-07T03:12:16;12.45;;;9.38;;
1400;SDS011;46518;48.842;8.926;2022-12-07T03:14:50;13.40;;;9.20;;
1400;SDS011;46518;48.842;8.926;2022-12-07T03:17:28;13.52;;;9.40;;
1400;SDS011;46518;48.842;8.926;2022-12-07T03:20:02;12.88;;;9.90;;
1400;SDS011;46518;48.842;8.926;2022-12-07T03:22:34;15.90;;;11.25;;
1400;SDS011;46518;48.842;8.926;2022-12-07T03:25:06;14.52;;;9.57;;
1400;SDS011;46518;48.842;8.926;2022-12-07T03:27:39;16.52;;;10.40;;
1400;SDS011;46518;48.842;8.926;2022-12-07T03:30:13;14.43;;;11.13;;
1400;SDS011;46518;48.842;8.926;2022-12-07T03:32:47;16.85;;;10.43;;
1400;SDS011;46518;48.842;8.926;2022-12-07T03:35:20;13.48;;;10.32;;
1400;SDS011;46518;48.842;8.926;2022-12-07T03:37:54;14.82;;;9.70;;
1400;SDS011;46518;48.842;8.926;2022-12-07T03:40:26;13.35;;;8.70;;
1400;SDS011;46518;48.842;8.926;2022-12-07T03:42:59;17.02;;;10.30;;
1400;SDS011;46518;48.842;8.926;2022-12-07T03:45:31;13.43;;;11.07;;
1400;SDS011;46518;48.842;8.926;2022-12-07T03:48:07;15.45;;;10.75;;
1400;SDS011;46518;48.842;8.926;2022-12-07T03:50:42;15.80;;;10.85;;
1400;SDS011;46518;48.842;8.926;2022-12-07T03:53:18;14.80;;;9.70;;
1400;SDS011;46518;48.842;8.926;2022-12-07T03:55:49;14.55;;;10.65;;
1400;SDS011;46518;48.842;8.926;2022-12-07T03:58:20;17.20;;;9.63;;
1400;SDS011;46518;48.842;8.926;2022-12-07T04:00:50;12.95;;;9.77;;
1400;SDS011;46518;48.842;8.926;2022-12-07T04:03:20;10.90;;;7.85;;
1400;SDS011;46518;48.842;8.926;2022-12-07T04:05:58;14.20;;;8.98;;
1400;SDS011;46518;48.842;8.926;2022-12-07T04:08:27;11.23;;;7.80;;
1400;SDS011;46518;48.842;8.926;2022-12-07T04:10:57;11.23;;;8.43;;
1400;SDS011;46518;48.842;8.926;2022-12-07T04:13:25;9.30;;;6.20;;
1400;SDS011;46518;48.842;8.926;2022-12-07T04:16:05;8.07;;;7.28;;
1400;SDS011;46518;48.842;8.926;2022-12-07T04:18:35;9.13;;;6.82;;
1400;SDS011;46518;48.842;8.926;2022-12-07T04:21:03;9.05;;;6.50;;
1400;SDS011;46518;48.842;8.926;2022-12-07T04:23:32;10.77;;;8.30;;
1400;SDS011;46518;48.842;8.926;2022-12-07T04:26:00;7.80;;;6.20;;
1400;SDS011;46518;48.842;8.926;2022-12-07T04:28:28;7.40;;;5.78;;
1400;SDS011;46518;48.842;8.926;2022-12-07T04:30:57;6.47;;;4.97;;
1400;SDS011;46518;48.842;8.926;2022-12-07T04:33:25;9.70;;;5.80;;
1400;SDS011;46518;48.842;8.926;2022-12-07T04:35:55;7.90;;;6.20;;
1400;SDS011;46518;48.842;8.926;2022-12-07T04:38:23;10.13;;;6.35;;
1400;SDS011;46518;48.842;8.926;2022-12-07T04:40:51;7.28;;;5.47;;
1400;SDS011;46518;48.842;8.926;2022-12-07T04:43:19;9.65;;;6.95;;
1400;SDS011;46518;48.842;8.926;2022-12-07T04:45:48;7.78;;;6.70;;
1400;SDS011;46518;48.842;8.926;2022-12-07T04:48:17;11.10;;;7.65;;
1400;SDS011;46518;48.842;8.926;2022-12-07T04:50:47;10.88;;;7.38;;
1400;SDS011;46518;48.842;8.926;2022-12-07T04:53:18;8.93;;;6.63;;
1400;SDS011;46518;48.842;8.926;2022-12-07T04:55:46;6.95;;;5.57;;
1400;SDS011;46518;48.842;8.926;2022-12-07T04:58:14;8.40;;;6.15;;
1400;SDS011;46518;48.842;8.926;2022-12-07T05:00:43;8.02;;;6.25;;
1400;SDS011;46518;48.842;8.926;2022-12-07T05:03:11;9.02;;;5.85;;
1400;SDS011;46518;48.842;8.926;2022-12-07T05:05:40;9.88;;;6.53;;
1400;SDS011;46518;48.842;8.926;2022-12-07T05:08:08;11.05;;;6.82;;
1400;SDS011;46518;48.842;8.926;2022-12-07T05:10:38;9.32;;;6.13;;
1400;SDS011;46518;48.842;8.926;2022-12-07T05:13:06;10.25;;;7.63;;
1400;SDS011;46518;48.842;8.926;2022-12-07T05:15:34;9.52;;;6.68;;
1400;SDS011;46518;48.842;8.926;2022-12-07T05:18:02;8.82;;;6.60;;
1400;SDS011;46518;48.842;8.926;2022-12-07T05:20:31;8.32;;;6.25;;
1400;SDS011;46518;48.842;8.926;2022-12-07T05:23:07;6.25;;;5.65;;
1400;SDS011;46518;48.842;8.926;2022-12-07T05:25:37;7.78;;;5.72;;
1400;SDS011;46518;48.842;8.926;2022-12-07T05:28:06;7.47;;;6.35;;
1400;SDS011;46518;48.842;8.926;2022-12-07T05:30:34;6.85;;;5.65;;
1400;SDS011;46518;48.842;8.926;2022-12-07T05:33:02;8.93;;;6.03;;
1400;SDS011;46518;48.842;8.926;2022-12-07T05:35:31;8.15;;;5.78;;
1400;SDS011;46518;48.842;8.926;2022-12-07T05:37:59;7.72;;;6.38;;
1400;SDS011;46518;48.842;8.926;2022-12-07T05:40:28;11.20;;;6.20;;
1400;SDS011;46518;48.842;8.926;2022-12-07T05:42:57;7.07;;;4.90;;
1400;SDS011;46518;48.842;8.926;2022-12-07T05:45:30;10.55;;;7.38;;
1400;SDS011;46518;48.842;8.926;2022-12-07T05:47:58;9.90;;;6.72;;
1400;SDS011;46518;48.842;8.926;2022-12-07T05:50:27;11.68;;;7.20;;
1400;SDS011;46518;48.842;8.926;2022-12-07T05:53:01;8.00;;;6.15;;
1400;SDS011;46518;48.842;8.926;2022-12-07T05:55:30;6.88;;;5.22;;
1400;SDS011;46518;48.842;8.926;2022-12-07T05:57:59;10.73;;;6.35;;
1400;SDS011;46518;48.842;8.926;2022-12-07T06:00:44;8.52;;;6.63;;
1400;SDS011;46518;48.842;8.926;2022-12-07T06:03:17;9.80;;;6.35;;
1400;SDS011;46518;48.842;8.926;2022-12-07T06:05:48;6.93;;;6.05;;
1400;SDS011;46518;48.842;8.926;2022-12-07T06:08:17;12.23;;;7.03;;
1400;SDS011;46518;48.842;8.926;2022-12-07T06:10:46;11.88;;;7.53;;
1400;SDS011;46518;48.842;8.926;2022-12-07T06:13:37;7.55;;;5.55;;
1400;SDS011;46518;48.842;8.926;2022-12-07T06:16:12;10.30;;;5.93;;
1400;SDS011;46518;48.842;8.926;2022-12-07T06:18:40;9.02;;;5.65;;
1400;SDS011;46518;48.842;8.926;2022-12-07T06:21:08;8.95;;;5.63;;
1400;SDS011;46518;48.842;8.926;2022-12-07T06:23:36;9.18;;;5.90;;
1400;SDS011;46518;48.842;8.926;2022-12-07T06:26:05;7.40;;;5.60;;
1400;SDS011;46518;48.842;8.926;2022-12-07T06:28:33;11.43;;;5.55;;
1400;SDS011;46518;48.842;8.926;2022-12-07T06:31:02;6.18;;;5.35;;
1400;SDS011;46518;48.842;8.926;2022-12-07T06:33:37;9.05;;;5.57;;
1400;SDS011;46518;48.842;8.926;2022-12-07T06:36:06;6.65;;;5.03;;
1400;SDS011;46518;48.842;8.926;2022-12-07T06:38:34;7.35;;;5.45;;
1400;SDS011;46518;48.842;8.926;2022-12-07T06:41:03;7.95;;;5.80;;
1400;SDS011;46518;48.842;8.926;2022-12-07T06:43:31;9.68;;;6.70;;
1400;SDS011;46518;48.842;8.926;2022-12-07T06:45:59;8.25;;;5.97;;
1400;SDS011;46518;48.842;8.926;2022-12-07T06:48:29;9.13;;;6.43;;
1400;SDS011;46518;48.842;8.926;2022-12-07T06:50:57;8.75;;;6.05;;
1400;SDS011;46518;48.842;8.926;2022-12-07T06:53:25;8.77;;;7.00;;
1400;SDS011;46518;48.842;8.926;2022-12-07T06:55:54;11.27;;;6.53;;
1400;SDS011;46518;48.842;8.926;2022-12-07T06:58:22;9.20;;;6.68;;
1400;SDS011;46518;48.842;8.926;2022-12-07T07:00:50;8.88;;;6.32;;
1400;SDS011;46518;48.842;8.926;2022-12-07T07:03:18;9.13;;;6.78;;
1400;SDS011;46518;48.842;8.926;2022-12-07T07:05:48;7.40;;;6.00;;
1400;SDS011;46518;48.842;8.926;2022-12-07T07:08:16;7.65;;;6.20;;
1400;SDS011;46518;48.842;8.926;2022-12-07T07:10:48;10.10;;;6.88;;
1400;SDS011;46518;48.842;8.926;2022-12-07T07:13:16;8.82;;;7.10;;
1400;SDS011;46518;48.842;8.926;2022-12-07T07:15:45;8.18;;;6.30;;
1400;SDS011;46518;48.842;8.926;2022-12-07T07:18:13;10.50;;;7.93;;
1400;SDS011;46518;48.842;8.926;2022-12-07T07:20:41;8.20;;;6.80;;
1400;SDS011;46518;48.842;8.926;2022-12-07T07:23:10;10.10;;;7.82;;
1400;SDS011;46518;48.842;8.926;2022-12-07T07:25:59;8.18;;;6.70;;
1400;SDS011;46518;48.842;8.926;2022-12-07T07:28:27;11.13;;;7.10;;
1400;SDS011;46518;48.842;8.926;2022-12-07T07:31:02;7.65;;;5.60;;
1400;SDS011;46518;48.842;8.926;2022-12-07T07:33:31;5.65;;;5.03;;
1400;SDS011;46518;48.842;8.926;2022-12-07T07:35:59;7.85;;;6.88;;
1400;SDS011;46518;48.842;8.926;2022-12-07T07:38:29;11.10;;;6.93;;
1400;SDS011;46518;48.842;8.926;2022-12-07T07:40:57;8.20;;;6.20;;
1400;SDS011;46518;48.842;8.926;2022-12-07T07:43:25;7.53;;;5.80;;
1400;SDS011;46518;48.842;8.926;2022-12-07T07:45:53;7.70;;;5.68;;
1400;SDS011;46518;48.842;8.926;2022-12-07T07:48:22;6.60;;;4.72;;
1400;SDS011;46518;48.842;8.926;2022-12-07T07:50:51;6.85;;;5.13;;
1400;SDS011;46518;48.842;8.926;2022-12-07T07:53:20;7.25;;;5.25;;
1400;SDS011;46518;48.842;8.926;2022-12-07T07:55:53;7.82;;;5.22;;
1400;SDS011;46518;48.842;8.926;2022-12-07T07:58:22;8.05;;;5.75;;
1400;SDS011;46518;48.842;8.926;2022-12-07T08:00:50;7.03;;;5.57;;
1400;SDS011;46518;48.842;8.926;2022-12-07T08:03:19;5.95;;;4.80;;
1400;SDS011;46518;48.842;8.926;2022-12-07T08:05:47;9.13;;;5.80;;
1400;SDS011;46518;48.842;8.926;2022-12-07T08:08:15;7.53;;;5.15;;
1400;SDS011;46518;48.842;8.926;2022-12-07T08:10:43;5.53;;;4.85;;
1400;SDS011;46518;48.842;8.926;2022-12-07T08:13:13;6.38;;;3.85;;
1400;SDS011;46518;48.842;8.926;2022-12-07T08:15:43;6.63;;;3.90;;
1400;SDS011;46518;48.842;8.926;2022-12-07T08:18:13;7.43;;;4.38;;
1400;SDS011;46518;48.842;8.926;2022-12-07T08:20:43;5.93;;;4.95;;
1400;SDS011;46518;48.842;8.926;2022-12-07T08:23:11;6.20;;;4.38;;
1400;SDS011;46518;48.842;8.926;2022-12-07T08:25:39;4.97;;;4.30;;
1400;SDS011;46518;48.842;8.926;2022-12-07T08:28:08;6.55;;;4.90;;
1400;SDS011;46518;48.842;8.926;2022-12-07T08:30:38;7.10;;;4.82;;
1400;SDS011;46518;48.842;8.926;2022-12-07T08:33:06;7.68;;;5.13;;
1400;SDS011;46518;48.842;8.926;2022-12-07T08:35:34;5.53;;;4.53;;
1400;SDS011;46518;48.842;8.926;2022-12-07T08:38:03;5.50;;;4.38;;
1400;SDS011;46518;48.842;8.926;2022-12-07T08:40:31;5.60;;;4.38;;
1400;SDS011;46518;48.842;8.926;2022-12-07T08:42:59;7.15;;;5.25;;
1400;SDS011;46518;48.842;8.926;2022-12-07T08:45:27;6.55;;;5.20;;
1400;SDS011;46518;48.842;8.926;2022-12-07T08:48:01;5.40;;;4.90;;
1400;SDS011;46518;48.842;8.926;2022-12-07T08:50:33;5.63;;;3.95;;
1400;SDS011;46518;48.842;8.926;2022-12-07T08:53:04;4.40;;;3.95;;
1400;SDS011;46518;48.842;8.926;2022-12-07T08:55:34;5.53;;;4.97;;
1400;SDS011;46518;48.842;8.926;2022-12-07T08:58:02;7.97;;;4.55;;
1400;SDS011;46518;48.842;8.926;2022-12-07T09:00:31;7.88;;;4.35;;
1400;SDS011;46518;48.842;8.926;2022-12-07T09:03:01;6.45;;;4.40;;
1400;SDS011;46518;48.842;8.926;2022-12-07T09:05:29;6.15;;;4.45;;
1400;SDS011;46518;48.842;8.926;2022-12-07T09:07:58;6.00;;;4.88;;
1400;SDS011;46518;48.842;8.926;2022-12-07T09:10:29;5.72;;;4.45;;
1400;SDS011;46518;48.842;8.926;2022-12-07T09:12:57;6.57;;;4.95;;
1400;SDS011;46518;48.842;8.926;2022-12-07T09:15:27;7.13;;;4.45;;
1400;SDS011;46518;48.842;8.926;2022-12-07T09:17:56;5.93;;;4.30;;
1400;SDS011;46518;48.842;8.926;2022-12-07T09:20:25;6.88;;;4.70;;
1400;SDS011;46518;48.842;8.926;2022-12-07T09:22:54;6.78;;;5.32;;
1400;SDS011;46518;48.842;8.926;2022-12-07T09:25:23;7.53;;;4.28;;
1400;SDS011;46518;48.842;8.926;2022-12-07T09:27:54;5.78;;;3.25;;
1400;SDS011;46518;48.842;8.926;2022-12-07T09:30:23;6.13;;;4.28;;
1400;SDS011;46518;48.842;8.926;2022-12-07T09:32:52;5.78;;;4.30;;
1400;SDS011;46518;48.842;8.926;2022-12-07T09:35:21;4.80;;;3.55;;
1400;SDS011;46518;48.842;8.926;2022-12-07T09:37:51;4.47;;;3.30;;
1400;SDS011;46518;48.842;8.926;2022-12-07T09:40:20;7.80;;;4.15;;
1400;SDS011;46518;48.842;8.926;2022-12-07T09:42:51;3.90;;;3.50;;
1400;SDS011;46518;48.842;8.926;2022-12-07T09:45:22;4.68;;;3.00;;
1400;SDS011;46518;48.842;8.926;2022-12-07T09:47:52;7.03;;;4.45;;
1400;SDS011;46518;48.842;8.926;2022-12-07T09:50:22;4.95;;;3.13;;
1400;SDS011;46518;48.842;8.926;2022-12-07T09:52:54;3.95;;;2.88;;
1400;SDS011;46518;48.842;8.926;2022-12-07T09:55:35;4.22;;;2.58;;
1400;SDS011;46518;48.842;8.926;2022-12-07T09:58:05;6.80;;;3.33;;
1400;SDS011;46518;48.842;8.926;2022-12-07T10:00:34;3.05;;;2.20;;
1400;SDS011;46518;48.842;8.926;2022-12-07T10:03:02;4.43;;;2.85;;
1400;SDS011;46518;48.842;8.926;2022-12-07T10:05:30;5.07;;;2.72;;
1400;SDS011;46518;48.842;8.926;2022-12-07T10:08:04;3.20;;;2.40;;
1400;SDS011;46518;48.842;8.926;2022-12-07T10:10:52;2.97;;;2.55;;
1400;SDS011;46518;48.842;8.926;2022-12-07T10:13:33;2.83;;;2.50;;
1400;SDS011;46518;48.842;8.926;2022-12-07T10:16:04;4.95;;;2.50;;
1400;SDS011;46518;48.842;8.926;2022-12-07T10:18:34;2.58;;;2.38;;
1400;SDS011;46518;48.842;8.926;2022-12-07T10:21:13;3.45;;;3.13;;
1400;SDS011;46518;48.842;8.926;2022-12-07T10:26:32;3.45;;;2.65;;
1400;SDS011;46518;48.842;8.926;2022-12-07T10:29:02;4.50;;;2.80;;
1400;SDS011;46518;48.842;8.926;2022-12-07T10:31:43;4.13;;;2.55;;
1400;SDS011;46518;48.842;8.926;2022-12-07T10:34:20;3.90;;;2.83;;
1400;SDS011;46518;48.842;8.926;2022-12-07T10:36:51;4.75;;;3.20;;
1400;SDS011;46518;48.842;8.926;2022-12-07T10:39:25;3.80;;;2.22;;
1400;SDS011;46518;48.842;8.926;2022-12-07T10:41:59;3.45;;;2.70;;
1400;SDS011;46518;48.842;8.926;2022-12-07T10:44:30;5.47;;;2.97;;
1400;SDS011;46518;48.842;8.926;2022-12-07T10:47:06;5.68;;;3.35;;
1400;SDS011;46518;48.842;8.926;2022-12-07T10:50:02;4.45;;;3.10;;
1400;SDS011;46518;48.842;8.926;2022-12-07T10:52:52;3.47;;;3.17;;
1400;SDS011;46518;48.842;8.926;2022-12-07T10:55:48;4.65;;;3.55;;
1400;SDS011;46518;48.842;8.926;2022-12-07T10:58:31;4.22;;;3.53;;
1400;SDS011;46518;48.842;8.926;2022-12-07T11:01:17;5.55;;;3.78;;
1400;SDS011;46518;48.842;8.926;2022-12-07T11:04:02;7.07;;;4.25;;
1400;SDS011;46518;48.842;8.926;2022-12-07T11:06:47;4.50;;;4.10;;
1400;SDS011;46518;48.842;8.926;2022-12-07T11:09:31;11.23;;;5.22;;
1400;SDS011;46518;48.842;8.926;2022-12-07T11:12:35;5.63;;;4.63;;
1400;SDS011;46518;48.842;8.926;2022-12-07T11:15:16;8.10;;;5.20;;
1400;SDS011;46518;48.842;8.926;2022-12-07T11:17:48;7.70;;;6.60;;
1400;SDS011;46518;48.842;8.926;2022-12-07T11:20:34;8.40;;;5.57;;
1400;SDS011;46518;48.842;8.926;2022-12-07T11:23:14;8.95;;;6.65;;
1400;SDS011;46518;48.842;8.926;2022-12-07T11:25:53;7.65;;;5.93;;
1400;SDS011;46518;48.842;8.926;2022-12-07T11:28:32;5.85;;;4.82;;
1400;SDS011;46518;48.842;8.926;2022-12-07T11:31:18;6.40;;;4.80;;
1400;SDS011;46518;48.842;8.926;2022-12-07T11:33:57;7.13;;;5.88;;
1400;SDS011;46518;48.842;8.926;2022-12-07T11:36:35;8.50;;;5.25;;
1400;SDS011;46518;48.842;8.926;2022-12-07T11:39:11;9.63;;;5.65;;
1400;SDS011;46518;48.842;8.926;2022-12-07T11:41:49;9.07;;;5.15;;
1400;SDS011;46518;48.842;8.926;2022-12-07T11:44:26;7.57;;;5.63;;
1400;SDS011;46518;48.842;8.926;2022-12-07T11:47:04;8.45;;;6.22;;
1400;SDS011;46518;48.842;8.926;2022-12-07T11:49:40;7.30;;;4.70;;
1400;SDS011;46518;48.842;8.926;2022-12-07T11:52:15;6.82;;;5.22;;
1400;SDS011;46518;48.842;8.926;2022-12-07T11:54:49;6.15;;;5.55;;
1400;SDS011;46518;48.842;8.926;2022-12-07T11:57:22;8.13;;;6.97;;
1400;SDS011;46518;48.842;8.926;2022-12-07T12:00:03;7.47;;;5.43;;
1400;SDS011;46518;48.842;8.926;2022-12-07T12:02:41;6.20;;;4.72;;
1400;SDS011;46518;48.842;8.926;2022-12-07T12:05:17;7.90;;;5.25;;
1400;SDS011;46518;48.842;8.926;2022-12-07T12:07:49;6.72;;;5.15;;
1400;SDS011;46518;48.842;8.926;2022-12-07T12:10:52;10.10;;;6.63;;
1400;SDS011;46518;48.842;8.926;2022-12-07T12:13:40;8.32;;;6.80;;
1400;SDS011;46518;48.842;8.926;2022-12-07T12:19:57;8.73;;;6.07;;
1400;SDS011;46518;48.842;8.926;2022-12-07T12:22:52;9.63;;;6.55;;
1400;SDS011;46518;48.842;8.926;2022-12-07T12:25:26;10.95;;;7.68;;
1400;SDS011;46518;48.842;8.926;2022-12-07T12:27:58;8.40;;;6.15;;
1400;SDS011;46518;48.842;8.926;2022-12-07T12:30:31;11.68;;;7.10;;
1400;SDS011;46518;48.842;8.926;2022-12-07T12:33:03;8.30;;;6.97;;
1400;SDS011;46518;48.842;8.926;2022-12-07T12:35:36;13.88;;;6.82;;
1400;SDS011;46518;48.842;8.926;2022-12-07T12:38:25;11.80;;;7.78;;
1400;SDS011;46518;48.842;8.926;2022-12-07T12:41:00;9.68;;;7.07;;
1400;SDS011;46518;48.842;8.926;2022-12-07T12:43:45;11.38;;;7.53;;
1400;SDS011;46518;48.842;8.926;2022-12-07T12:55:19;13.25;;;10.73;;
1400;SDS011;46518;48.842;8.926;2022-12-07T13:04:27;11.05;;;6.68;;
1400;SDS011;46518;48.842;8.926;2022-12-07T13:07:47;11.23;;;6.75;;
1400;SDS011;46518;48.842;8.926;2022-12-07T13:10:32;13.93;;;8.77;;
1400;SDS011;46518;48.842;8.926;2022-12-07T13:13:05;12.63;;;6.90;;
1400;SDS011;46518;48.842;8.926;2022-12-07T13:22:37;8.65;;;6.50;;
1400;SDS011;46518;48.842;8.926;2022-12-07T13:25:31;8.40;;;5.90;;
1400;SDS011;46518;48.842;8.926;2022-12-07T13:28:26;8.00;;;5.63;;
1400;SDS011;46518;48.842;8.926;2022-12-07T13:33:59;10.70;;;6.63;;
1400;SDS011;46518;48.842;8.926;2022-12-07T13:36:29;10.43;;;6.95;;
1400;SDS011;46518;48.842;8.926;2022-12-07T13:39:17;8.80;;;6.55;;
1400;SDS011;46518;48.842;8.926;2022-12-07T13:41:51;6.97;;;5.60;;
1400;SDS011;46518;48.842;8.926;2022-12-07T13:44:21;7.88;;;6.13;;
1400;SDS011;46518;48.842;8.926;2022-12-07T13:46:55;9.50;;;5.70;;
1400;SDS011;46518;48.842;8.926;2022-12-07T13:49:29;10.43;;;6.55;;
1400;SDS011;46518;48.842;8.926;2022-12-07T13:52:13;6.55;;;5.60;;
1400;SDS011;46518;48.842;8.926;2022-12-07T13:54:45;6.72;;;5.85;;
1400;SDS011;46518;48.842;8.926;2022-12-07T13:57:17;10.40;;;6.10;;
1400;SDS011;46518;48.842;8.926;2022-12-07T13:59:45;10.25;;;5.80;;
1400;SDS011;46518;48.842;8.926;2022-12-07T14:02:20;7.57;;;5.15;;
1400;SDS011;46518;48.842;8.926;2022-12-07T14:05:05;6.55;;;5.38;;
1400;SDS011;46518;48.842;8.926;2022-12-07T14:07:36;9.68;;;5.95;;
1400;SDS011;46518;48.842;8.926;2022-12-07T14:10:24;6.88;;;5.70;;
1400;SDS011;46518;48.842;8.926;2022-12-07T14:12:56;8.05;;;5.90;;
1400;SDS011;46518;48.842;8.926;2022-12-07T14:15:26;6.65;;;4.95;;
1400;SDS011;46518;48.842;8.926;2022-12-07T14:17:57;6.32;;;4.32;;
1400;SDS011;46518;48.842;8.926;2022-12-07T14:20:31;7.82;;;4.65;;
1400;SDS011;46518;48.842;8.926;2022-12-07T14:23:00;8.15;;;5.65;;
1400;SDS011;46518;48.842;8.926;2022-12-07T14:25:44;6.05;;;4.55;;
1400;SDS011;46518;48.842;8.926;2022-12-07T14:28:28;8.70;;;5.55;;
1400;SDS011;46518;48.842;8.926;2022-12-07T14:30:58;6.82;;;4.88;;
1400;SDS011;46518;48.842;8.926;2022-12-07T14:33:28;10.35;;;5.72;;
1400;SDS011;46518;48.842;8.926;2022-12-07T14:35:56;9.45;;;6.70;;
1400;SDS011;46518;48.842;8.926;2022-12-07T14:38:25;10.80;;;6.25;;
1400;SDS011;46518;48.842;8.926;2022-12-07T14:40:53;11.52;;;7.18;;
1400;SDS011;46518;48.842;8.926;2022-12-07T14:43:45;10.32;;;6.25;;
1400;SDS011;46518;48.842;8.926;2022-12-07T14:46:33;10.77;;;7.63;;
1400;SDS011;46518;48.842;8.926;2022-12-07T14:49:02;12.75;;;7.80;;
1400;SDS011;46518;48.842;8.926;2022-12-07T14:51:50;10.02;;;7.18;;
1400;SDS011;46518;48.842;8.926;2022-12-07T14:54:38;15.23;;;9.35;;
1400;SDS011;46518;48.842;8.926;2022-12-07T14:57:07;12.48;;;9.40;;
1400;SDS011;46518;48.842;8.926;2022-12-07T14:59:38;13.20;;;8.13;;
1400;SDS011;46518;48.842;8.926;2022-12-07T15:02:11;14.05;;;8.30;;
1400;SDS011;46518;48.842;8.926;2022-12-07T15:04:41;15.15;;;9.77;;
1400;SDS011;46518;48.842;8.926;2022-12-07T15:07:18;13.63;;;8.60;;
1400;SDS011;46518;48.842;8.926;2022-12-07T15:09:48;14.07;;;9.75;;
1400;SDS011;46518;48.842;8.926;2022-12-07T15:12:16;15.13;;;9.73;;
1400;SDS011;46518;48.842;8.926;2022-12-07T15:14:46;17.35;;;10.93;;
1400;SDS011;46518;48.842;8.926;2022-12-07T15:17:14;17.23;;;10.70;;
1400;SDS011;46518;48.842;8.926;2022-12-07T15:19:57;14.82;;;8.95;;
1400;SDS011;46518;48.842;8.926;2022-12-07T15:22:25;17.38;;;10.77;;
1400;SDS011;46518;48.842;8.926;2022-12-07T15:24:53;14.70;;;9.45;;
1400;SDS011;46518;48.842;8.926;2022-12-07T15:27:21;21.17;;;11.07;;
1400;SDS011;46518;48.842;8.926;2022-12-07T15:29:51;15.15;;;10.30;;
1400;SDS011;46518;48.842;8.926;2022-12-07T15:32:20;14.65;;;8.48;;
1400;SDS011;46518;48.842;8.926;2022-12-07T15:34:49;13.73;;;9.50;;
1400;SDS011;46518;48.842;8.926;2022-12-07T15:37:17;17.45;;;10.70;;
1400;SDS011;46518;48.842;8.926;2022-12-07T15:39:46;20.20;;;10.27;;
1400;SDS011;46518;48.842;8.926;2022-12-07T15:42:18;17.23;;;11.90;;
1400;SDS011;46518;48.842;8.926;2022-12-07T15:44:47;16.08;;;10.10;;
1400;SDS011;46518;48.842;8.926;2022-12-07T15:47:35;14.02;;;10.07;;
1400;SDS011;46518;48.842;8.926;2022-12-07T15:50:24;17.45;;;9.73;;
1400;SDS011;46518;48.842;8.926;2022-12-07T15:52:53;15.38;;;9.35;;
1400;SDS011;46518;48.842;8.926;2022-12-07T15:55:21;16.92;;;10.20;;
1400;SDS011;46518;48.842;8.926;2022-12-07T15:57:49;16.35;;;12.45;;
1400;SDS011;46518;48.842;8.926;2022-12-07T16:00:18;22.08;;;11.68;;
1400;SDS011;46518;48.842;8.926;2022-12-07T16:02:48;20.45;;;11.20;;